Share

Hibbing, MN

Chisholm-hibbing (KHIB) Elev 1352 ft | 47.39 °N, 92.84 °W | Change Station

Current weather conditions updated 23 minutes ago

Light Snow
Light Snow
27 °F
Feels Like 16 °F
N
13
Wind Variable Wind from NE
Gusts 20 mph
Sunrise 6:21 AM
Sunset 8:02 PM
Moon Waning Gibbous

Tomorrow is forecast to be Much Warmer than today.

Pressure 30.17 in
Visibility 2.5 miles
Clouds Overcast 3400 ft
Windchill 16 °F
Dew Point 20 °F
Humidity 75%
Rainfall 0.00 in
Snow Depth Not available.
UV 0 out of 16
Pollen 1.00 out of 12
Air Quality Not available.
Flu Activity Sporadic
SPECI KHIB 170024Z AUTO 05011G17KT 2 1/2SM -SN OVC034 M03/M07 A3017 RMK AO2 P0000 T10281067

More Conditions Fewer Conditions

Pressure 30.17 in
Visibility 2.5 miles
Clouds Overcast 3400 ft
Windchill 16 °F
Dew Point 20 °F
Humidity 75%
Rainfall 0.00 in
Snow Depth Not available.
UV 0 out of 16
Pollen 1.00 out of 12
Air Quality Not available.
Flu Activity Sporadic
SPECI KHIB 170024Z AUTO 05011G17KT 2 1/2SM -SN OVC034 M03/M07 A3017 RMK AO2 P0000 T10281067

More Conditions Fewer Conditions

10-Day Forecast

Almanac

Astronomy

Apr. 16, 2014 Rise Set
Actual Time 6:21 AM CDT 8:02 PM CDT
Civil Twilight 5:48 AM CDT 8:34 PM CDT
Nautical Twilight 5:09 AM CDT 9:14 PM CDT
Astronomical Twilight 4:26 AM CDT 9:57 PM CDT
Moon 9:52 PM CDT (4/16) 7:04 AM CDT (4/16)
Length of Visible Light 14h 45m
Length of Day
13h 41m
Tomorrow will be 3m 15s longer.
Waning Gibbous, 97% of the Moon is Illuminated
Today
Waning Gibbous
Apr 22
Last Quarter
Apr 29
New
May 6
First Quarter
May 14
Full

Today's Extremes

State Highs State Lows

Community

  • symphony in blue....
    symphony in blue....
  • Dawn Surprise
    Dawn Surprise
  • Yucca delight
    Yucca delight
  • Sunset inside of the Ocean
    Sunset inside of the Ocean
  • Lunar eclipse 15 April 2014
    Lunar eclipse 15 April 2014

WunderPhotos

Upload Photos

1,701,768 photos uploaded!

WunderBlogs® & News

Nearby

Snow Depth

Station Depth Elevation
No new snow has been reported.

Coastal Water Temperatures

Place Temperature
No Stations Reporting

Earthquake Activity

City Distance Mag. Time & Date
No recent earthquake activity has been reported nearby.
Minimum magnitude displayed is 2.5.

Nearby Weather Stations

Station Location Temp. Windchill Dew Point Humidity Wind Precip. Elev Updated Type
RAWS HIBBING MN, Hibbing, MN 26 °F 15 °F 21 °F 82% NE  at  12 mph 0.00 in / hr 1350 ft 7:07 PM CDT MADIS

Show More Stations Show Fewer Stations

What do you think?

We're not finished. Please let us know what you like, what you don't like, and what you are still missing.